MKJS/MBJ METAR and TAF weather

Enter ICAO airport designator
Station Type Date Time Source
MKJS METAR 2022/12/08 14:00 UTC NOAA

MKJS 081400Z 10009KT 9999 FEW022 26/20 Q1016


Station Type Date Time Source
MKJS Decoded METAR 2022/12/08 14:00 UTC NOAA

Montego Bay / Sangster, Jamaica (MKJS) 18-30N 077-55W 8M
Dec 08, 2022 - 09:00 AM EST / 2022.12.08 1400 UTC
Wind: from the E (100 degrees) at 10 MPH (9 KT):0
Visibility: greater than 7 mile(s):0
Sky conditions: mostly clear
Temperature: 78 F (26 C)
Dew Point: 68 F (20 C)
Relative Humidity: 69%
Pressure (altimeter): 30.00 in. Hg (1016 hPa)
ob: MKJS 081400Z 10009KT 9999 FEW022 26/20 Q1016
cycle: 14

Station Type Date Time Source
MKJS TAF 2022/12/08 12:19 UTC NOAA

TAF MKJS 081115Z 0812/0912 10008KT 9999 FEW022
BECMG 0813/0815 07018KT SCT038
BECMG 0902/0904 11006KT

Example: see airport list